LNK120 FAOR-FALE
Flight info
| Callsign | LNK120 |
|---|---|
| Flight time | N/A |
| Altitude | 31000 |
| Route | APDAK1D APDAK UQ48 APMAT APMAT1A |
| Aircraft | E195/M-SDE3GILORVW/S |
Departure
| Time | 2026-05-05 20:05 |
|---|---|
| Airport | O.R. Tambo International Airport (FAOR) |
Arrival
| Time | N/A |
|---|---|
| Airport | King Shaka International Airport (FALE) |
| Time | Latitude | Longitude | Altitude | Speed | Heading |
|---|---|---|---|---|---|
| 2026-05-05 19:43 | -26.11741 | 28.23968 | 5503 ft | 0 kts | 285° |
| 2026-05-05 19:56 | -26.11745 | 28.23982 | 5503 ft | 3 kts | 285° |
| 2026-05-05 19:56 | -26.11750 | 28.24002 | 5503 ft | 3 kts | 285° |
| 2026-05-05 19:57 | -26.11754 | 28.24022 | 5503 ft | 3 kts | 316° |
| 2026-05-05 19:57 | -26.11764 | 28.24030 | 5503 ft | 3 kts | 0° |
| 2026-05-05 19:57 | -26.11778 | 28.24027 | 5503 ft | 0 kts | 56° |
| 2026-05-05 19:58 | -26.11777 | 28.24028 | 5503 ft | 1 kts | 53° |
| 2026-05-05 19:58 | -26.11772 | 28.24031 | 5503 ft | 0 kts | 29° |
| 2026-05-05 19:58 | -26.11771 | 28.24031 | 5503 ft | 0 kts | 29° |
| 2026-05-05 19:59 | -26.11771 | 28.24032 | 5503 ft | 0 kts | 29° |
| 2026-05-05 19:59 | -26.11770 | 28.24032 | 5503 ft | 0 kts | 29° |
| 2026-05-05 20:00 | -26.11769 | 28.24032 | 5503 ft | 0 kts | 28° |
| 2026-05-05 20:00 | -26.11765 | 28.24035 | 5503 ft | 1 kts | 29° |
| 2026-05-05 20:00 | -26.11759 | 28.24040 | 5503 ft | 1 kts | 38° |
| 2026-05-05 20:00 | -26.11755 | 28.24045 | 5503 ft | 1 kts | 43° |
| 2026-05-05 20:01 | -26.11749 | 28.24053 | 5503 ft | 6 kts | 57° |
| 2026-05-05 20:01 | -26.11741 | 28.24108 | 5503 ft | 9 kts | 72° |
| 2026-05-05 20:01 | -26.11679 | 28.24150 | 5502 ft | 14 kts | 18° |
| 2026-05-05 20:01 | -26.11562 | 28.24188 | 5500 ft | 21 kts | 17° |
| 2026-05-05 20:02 | -26.11401 | 28.24236 | 5498 ft | 25 kts | 15° |
| 2026-05-05 20:02 | -26.11229 | 28.24289 | 5496 ft | 26 kts | 15° |
| 2026-05-05 20:02 | -26.11054 | 28.24342 | 5492 ft | 26 kts | 15° |
| 2026-05-05 20:02 | -26.10876 | 28.24387 | 5490 ft | 24 kts | 12° |
| 2026-05-05 20:03 | -26.10788 | 28.24433 | 5488 ft | 13 kts | 54° |
| 2026-05-05 20:03 | -26.10784 | 28.24511 | 5487 ft | 9 kts | 108° |
| 2026-05-05 20:03 | -26.10808 | 28.24583 | 5486 ft | 11 kts | 115° |
| 2026-05-05 20:03 | -26.10853 | 28.24608 | 5486 ft | 6 kts | 191° |
| 2026-05-05 20:04 | -26.10885 | 28.24599 | 5487 ft | 5 kts | 195° |
| 2026-05-05 20:04 | -26.11089 | 28.24535 | 5493 ft | 58 kts | 195° |
| 2026-05-05 20:04 | -26.11654 | 28.24360 | 5502 ft | 110 kts | 196° |
| 2026-05-05 20:04 | -26.12548 | 28.24082 | 5515 ft | 156 kts | 195° |
| 2026-05-05 20:05 | -26.13711 | 28.23736 | 5673 ft | 184 kts | 194° |
| 2026-05-05 20:05 | -26.15005 | 28.23423 | 6254 ft | 194 kts | 191° |
| 2026-05-05 20:05 | -26.16333 | 28.23197 | 7000 ft | 199 kts | 189° |
| 2026-05-05 20:05 | -26.17745 | 28.22930 | 7529 ft | 216 kts | 191° |
| 2026-05-05 20:06 | -26.19264 | 28.22634 | 8052 ft | 227 kts | 191° |
| 2026-05-05 20:06 | -26.20842 | 28.22325 | 8507 ft | 237 kts | 188° |
| 2026-05-05 20:06 | -26.22537 | 28.22413 | 8876 ft | 252 kts | 163° |
| 2026-05-05 20:06 | -26.24072 | 28.23381 | 9408 ft | 258 kts | 137° |
| 2026-05-05 20:07 | -26.25157 | 28.24967 | 10012 ft | 260 kts | 118° |
| 2026-05-05 20:07 | -26.25946 | 28.26790 | 10616 ft | 263 kts | 114° |
| 2026-05-05 20:07 | -26.26710 | 28.28665 | 11136 ft | 268 kts | 114° |
| 2026-05-05 20:07 | -26.27485 | 28.30560 | 11716 ft | 269 kts | 114° |
| 2026-05-05 20:08 | -26.28270 | 28.32453 | 12332 ft | 270 kts | 115° |
| 2026-05-05 20:08 | -26.29067 | 28.34357 | 12910 ft | 271 kts | 115° |
| 2026-05-05 20:08 | -26.29859 | 28.36274 | 13458 ft | 274 kts | 114° |
| 2026-05-05 20:08 | -26.30655 | 28.38210 | 14021 ft | 276 kts | 115° |
| 2026-05-05 20:09 | -26.31457 | 28.40166 | 14583 ft | 279 kts | 114° |
| 2026-05-05 20:09 | -26.32261 | 28.42143 | 15150 ft | 281 kts | 114° |
| 2026-05-05 20:09 | -26.33061 | 28.44124 | 15689 ft | 287 kts | 114° |
| 2026-05-05 20:09 | -26.33903 | 28.46232 | 16005 ft | 307 kts | 114° |
| 2026-05-05 20:10 | -26.34755 | 28.48493 | 16151 ft | 333 kts | 112° |
| 2026-05-05 20:10 | -26.35665 | 28.50962 | 16416 ft | 353 kts | 112° |
| 2026-05-05 20:10 | -26.36620 | 28.53505 | 17111 ft | 358 kts | 113° |
| 2026-05-05 20:10 | -26.37613 | 28.56063 | 17894 ft | 360 kts | 114° |
| 2026-05-05 20:11 | -26.38615 | 28.58632 | 18663 ft | 362 kts | 114° |
| 2026-05-05 20:11 | -26.39621 | 28.61214 | 19330 ft | 365 kts | 113° |
| 2026-05-05 20:11 | -26.40620 | 28.63833 | 19979 ft | 369 kts | 113° |
| 2026-05-05 20:11 | -26.41615 | 28.66496 | 20602 ft | 373 kts | 112° |
| 2026-05-05 20:12 | -26.42610 | 28.69184 | 21214 ft | 377 kts | 112° |
| 2026-05-05 20:12 | -26.43603 | 28.71905 | 21799 ft | 380 kts | 112° |
| 2026-05-05 20:12 | -26.44600 | 28.74662 | 22358 ft | 384 kts | 112° |
| 2026-05-05 20:12 | -26.45584 | 28.77405 | 22896 ft | 387 kts | 111° |
| 2026-05-05 20:13 | -26.46579 | 28.80209 | 23408 ft | 391 kts | 111° |
| 2026-05-05 20:13 | -26.47573 | 28.83046 | 23900 ft | 394 kts | 111° |
| 2026-05-05 20:13 | -26.48569 | 28.85913 | 24378 ft | 397 kts | 111° |
| 2026-05-05 20:13 | -26.49565 | 28.88805 | 24832 ft | 400 kts | 111° |
| 2026-05-05 20:14 | -26.50560 | 28.91717 | 25282 ft | 403 kts | 111° |
| 2026-05-05 20:14 | -26.51557 | 28.94656 | 25730 ft | 405 kts | 111° |
| 2026-05-05 20:14 | -26.52218 | 28.96617 | 26020 ft | 407 kts | 110° |
| 2026-05-05 20:14 | -26.53548 | 29.00599 | 26577 ft | 411 kts | 110° |
| 2026-05-05 20:15 | -26.54205 | 29.02579 | 26842 ft | 413 kts | 110° |
| 2026-05-05 20:15 | -26.55948 | 29.06313 | 27783 ft | 398 kts | 130° |
| 2026-05-05 20:15 | -26.57808 | 29.08480 | 28935 ft | 377 kts | 137° |
| 2026-05-05 20:15 | -26.59082 | 29.09779 | 29629 ft | 364 kts | 138° |
| 2026-05-05 20:16 | -26.60901 | 29.11654 | 30562 ft | 346 kts | 137° |
| 2026-05-05 20:16 | -26.62633 | 29.13494 | 30973 ft | 342 kts | 136° |
| 2026-05-05 20:16 | -26.64337 | 29.15335 | 31014 ft | 349 kts | 136° |
| 2026-05-05 20:17 | -26.67827 | 29.19147 | 31015 ft | 351 kts | 136° |
| 2026-05-05 20:17 | -26.71318 | 29.22976 | 31005 ft | 350 kts | 136° |
| 2026-05-05 20:18 | -26.74776 | 29.26774 | 31005 ft | 350 kts | 136° |
| 2026-05-05 20:18 | -26.78264 | 29.30608 | 31006 ft | 350 kts | 136° |
| 2026-05-05 20:19 | -26.81726 | 29.34417 | 31008 ft | 350 kts | 136° |
| 2026-05-05 20:19 | -26.85212 | 29.38256 | 31010 ft | 350 kts | 135° |
| 2026-05-05 20:20 | -26.88670 | 29.42067 | 31011 ft | 350 kts | 135° |
| 2026-05-05 20:20 | -26.92241 | 29.45774 | 31012 ft | 349 kts | 144° |
| 2026-05-05 20:21 | -26.96222 | 29.48914 | 31026 ft | 350 kts | 146° |
| 2026-05-05 20:21 | -27.00225 | 29.52026 | 31030 ft | 350 kts | 145° |
| 2026-05-05 20:22 | -27.04219 | 29.55143 | 31031 ft | 350 kts | 145° |
| 2026-05-05 20:22 | -27.08202 | 29.58257 | 30992 ft | 350 kts | 145° |
| 2026-05-05 20:23 | -27.12216 | 29.61398 | 30998 ft | 350 kts | 145° |
| 2026-05-05 20:23 | -27.16189 | 29.64511 | 31006 ft | 350 kts | 145° |
| 2026-05-05 20:24 | -27.20185 | 29.67645 | 31001 ft | 351 kts | 145° |
| 2026-05-05 20:24 | -27.24206 | 29.70801 | 31001 ft | 350 kts | 145° |
| 2026-05-05 20:25 | -27.28189 | 29.73930 | 31001 ft | 350 kts | 145° |
| 2026-05-05 20:25 | -27.32193 | 29.77077 | 31002 ft | 351 kts | 145° |
| 2026-05-05 20:26 | -27.36180 | 29.80214 | 31001 ft | 350 kts | 145° |
| 2026-05-05 20:26 | -27.40174 | 29.83359 | 31003 ft | 351 kts | 145° |
| 2026-05-05 20:27 | -27.44148 | 29.86492 | 31001 ft | 350 kts | 145° |
| 2026-05-05 20:27 | -27.48152 | 29.89652 | 31002 ft | 350 kts | 145° |
| 2026-05-05 20:28 | -27.52114 | 29.92781 | 31000 ft | 349 kts | 145° |
| 2026-05-05 20:28 | -27.56092 | 29.95925 | 31002 ft | 348 kts | 145° |
| 2026-05-05 20:29 | -27.60049 | 29.99056 | 31002 ft | 348 kts | 145° |
| 2026-05-05 20:29 | -27.64008 | 30.02191 | 31002 ft | 348 kts | 145° |
| 2026-05-05 20:30 | -27.67965 | 30.05326 | 31002 ft | 348 kts | 145° |
| 2026-05-05 20:30 | -27.71928 | 30.08486 | 31001 ft | 348 kts | 145° |
| 2026-05-05 20:31 | -27.75890 | 30.11650 | 31002 ft | 348 kts | 145° |
| 2026-05-05 20:31 | -27.79833 | 30.14800 | 31002 ft | 348 kts | 145° |
| 2026-05-05 20:32 | -27.83796 | 30.17968 | 31001 ft | 348 kts | 145° |
| 2026-05-05 20:32 | -27.87726 | 30.21113 | 31002 ft | 348 kts | 145° |
| 2026-05-05 20:33 | -27.91690 | 30.24289 | 31002 ft | 348 kts | 145° |
| 2026-05-05 20:33 | -27.95640 | 30.27456 | 31001 ft | 348 kts | 145° |
| 2026-05-05 20:34 | -27.99558 | 30.30600 | 31002 ft | 348 kts | 145° |
| 2026-05-05 20:34 | -28.03503 | 30.33769 | 31002 ft | 348 kts | 145° |
| 2026-05-05 20:35 | -28.07536 | 30.37012 | 31019 ft | 355 kts | 145° |
| 2026-05-05 20:35 | -28.18449 | 30.45799 | 30998 ft | 406 kts | 144° |
| 2026-05-05 20:35 | -28.28082 | 30.53578 | 31007 ft | 443 kts | 144° |
| 2026-05-05 20:35 | -28.38508 | 30.62015 | 30996 ft | 470 kts | 144° |
| 2026-05-05 20:36 | -28.49182 | 30.70681 | 31002 ft | 472 kts | 144° |
| 2026-05-05 20:36 | -28.70450 | 30.88008 | 30377 ft | 474 kts | 144° |
| 2026-05-05 20:36 | -28.81208 | 30.95944 | 27835 ft | 452 kts | 164° |
| 2026-05-05 20:37 | -28.93529 | 30.98783 | 25516 ft | 448 kts | 167° |
| 2026-05-05 20:37 | -29.05446 | 31.01898 | 23162 ft | 432 kts | 167° |
| 2026-05-05 20:37 | -29.17014 | 31.04951 | 20884 ft | 418 kts | 167° |
| 2026-05-05 20:37 | -29.28078 | 31.07864 | 19211 ft | 392 kts | 167° |
| 2026-05-05 20:38 | -29.37665 | 31.10387 | 22848 ft | 358 kts | 167° |
| 2026-05-05 20:38 | -29.44165 | 31.10675 | 24906 ft | 340 kts | 197° |